Exning, United Kingdom
Current Conditions -  °F | °C
As of 11:58 PM on Wednesday 26 Nov 2014 (Local Time) from EGUN Reporting Station
Moderate Fog Moderate Fog  
Wind Chill: 48°   Ceiling: 100
Heat Index: 48°   Visibility: 0.25mi
Dew Point: 46°   Wind: 3mph
Humidity: 93%   Direction: 100°E
Pressure: 29.74"   Gusts: NA
Location:  52.27°N, 0.37°E
Report Text: EGUN 262358Z AUTO 10003KT 0400 R11/0250 FG VV001 09/08 A2974 RMK AO2 SLP074 60000 57014 $
Loading
Personal Weather Stations






























Interactive Weather Map New forecast layout! Learn more

10-Day Weather Forecast

Advertisements
Track Severe Weather on mobile